sensor_id;sensor_type;location;lat;lon;timestamp;pressure;altitude;pressure_sealevel;temperature;humidity
29535;BME280;72082;52.650;8.116;2024-02-23T00:01:08;98027.56;;;6.06;100.00
29535;BME280;72082;52.650;8.116;2024-02-23T00:03:34;98084.47;;;6.01;100.00
29535;BME280;72082;52.650;8.116;2024-02-23T00:05:59;98070.91;;;6.00;100.00
29535;BME280;72082;52.650;8.116;2024-02-23T00:08:24;98065.81;;;6.02;100.00
29535;BME280;72082;52.650;8.116;2024-02-23T00:10:49;98074.22;;;6.04;100.00
29535;BME280;72082;52.650;8.116;2024-02-23T00:13:15;98064.88;;;6.04;100.00
29535;BME280;72082;52.650;8.116;2024-02-23T00:15:40;98047.97;;;6.03;100.00
29535;BME280;72082;52.650;8.116;2024-02-23T00:18:05;98076.78;;;6.02;100.00
29535;BME280;72082;52.650;8.116;2024-02-23T00:20:30;98080.22;;;6.01;100.00
29535;BME280;72082;52.650;8.116;2024-02-23T00:22:56;98097.13;;;6.02;100.00
29535;BME280;72082;52.650;8.116;2024-02-23T00:25:21;98091.94;;;6.05;100.00
29535;BME280;72082;52.650;8.116;2024-02-23T00:27:46;98112.25;;;6.07;100.00
29535;BME280;72082;52.650;8.116;2024-02-23T00:30:12;98125.81;;;6.06;100.00
29535;BME280;72082;52.650;8.116;2024-02-23T00:32:37;98130.06;;;6.05;100.00
29535;BME280;72082;52.650;8.116;2024-02-23T00:35:02;98141.22;;;6.01;100.00
29535;BME280;72082;52.650;8.116;2024-02-23T00:37:28;98128.72;;;5.94;100.00
29535;BME280;72082;52.650;8.116;2024-02-23T00:39:53;98158.50;;;5.89;100.00
29535;BME280;72082;52.650;8.116;2024-02-23T00:42:18;98170.47;;;5.82;100.00
29535;BME280;72082;52.650;8.116;2024-02-23T00:44:44;98182.47;;;5.77;100.00
29535;BME280;72082;52.650;8.116;2024-02-23T00:47:09;98189.28;;;5.75;100.00
29535;BME280;72082;52.650;8.116;2024-02-23T00:49:34;98194.44;;;5.72;100.00
29535;BME280;72082;52.650;8.116;2024-02-23T00:52:00;98202.25;;;5.65;100.00
29535;BME280;72082;52.650;8.116;2024-02-23T00:54:25;98232.88;;;5.58;100.00
29535;BME280;72082;52.650;8.116;2024-02-23T00:56:50;98244.84;;;5.53;100.00
29535;BME280;72082;52.650;8.116;2024-02-23T00:59:16;98238.19;;;5.49;100.00
29535;BME280;72082;52.650;8.116;2024-02-23T01:01:41;98282.31;;;5.44;100.00
29535;BME280;72082;52.650;8.116;2024-02-23T01:04:06;98266.34;;;5.39;100.00
29535;BME280;72082;52.650;8.116;2024-02-23T01:06:31;98281.69;;;5.34;100.00
29535;BME280;72082;52.650;8.116;2024-02-23T01:08:57;98277.59;;;5.27;100.00
29535;BME280;72082;52.650;8.116;2024-02-23T01:11:22;98318.38;;;5.20;100.00
29535;BME280;72082;52.650;8.116;2024-02-23T01:13:49;98299.94;;;5.12;100.00
29535;BME280;72082;52.650;8.116;2024-02-23T01:16:14;98314.31;;;5.11;100.00
29535;BME280;72082;52.650;8.116;2024-02-23T01:18:39;98327.91;;;5.09;100.00
29535;BME280;72082;52.650;8.116;2024-02-23T01:21:04;98336.41;;;5.08;100.00
29535;BME280;72082;52.650;8.116;2024-02-23T01:23:29;98349.09;;;5.06;100.00
29535;BME280;72082;52.650;8.116;2024-02-23T01:25:55;98342.31;;;5.07;100.00
29535;BME280;72082;52.650;8.116;2024-02-23T01:28:20;98356.75;;;5.05;100.00
29535;BME280;72082;52.650;8.116;2024-02-23T01:30:45;98362.66;;;5.05;100.00
29535;BME280;72082;52.650;8.116;2024-02-23T01:33:10;98372.03;;;5.02;100.00
29535;BME280;72082;52.650;8.116;2024-02-23T01:35:36;98375.41;;;5.00;100.00
29535;BME280;72082;52.650;8.116;2024-02-23T01:38:01;98378.84;;;4.99;100.00
29535;BME280;72082;52.650;8.116;2024-02-23T01:40:26;98377.22;;;4.95;100.00
29535;BME280;72082;52.650;8.116;2024-02-23T01:43:05;98398.41;;;4.93;100.00
29535;BME280;72082;52.650;8.116;2024-02-23T01:45:31;98411.97;;;4.90;100.00
29535;BME280;72082;52.650;8.116;2024-02-23T01:47:57;98424.75;;;4.86;100.00
29535;BME280;72082;52.650;8.116;2024-02-23T01:50:24;98442.56;;;4.83;100.00
29535;BME280;72082;52.650;8.116;2024-02-23T01:52:49;98440.91;;;4.80;100.00
29535;BME280;72082;52.650;8.116;2024-02-23T01:55:15;98441.75;;;4.81;100.00
29535;BME280;72082;52.650;8.116;2024-02-23T01:57:40;98438.38;;;4.82;100.00
29535;BME280;72082;52.650;8.116;2024-02-23T02:00:06;98428.22;;;4.80;100.00
29535;BME280;72082;52.650;8.116;2024-02-23T02:02:32;98439.31;;;4.76;100.00
29535;BME280;72082;52.650;8.116;2024-02-23T02:04:57;98443.66;;;4.68;100.00
29535;BME280;72082;52.650;8.116;2024-02-23T02:07:22;98430.22;;;4.63;100.00
29535;BME280;72082;52.650;8.116;2024-02-23T02:09:48;98427.78;;;4.59;100.00
29535;BME280;72082;52.650;8.116;2024-02-23T02:12:13;98448.06;;;4.57;100.00
29535;BME280;72082;52.650;8.116;2024-02-23T02:14:38;98438.69;;;4.62;100.00
29535;BME280;72082;52.650;8.116;2024-02-23T02:17:03;98455.47;;;4.69;100.00
29535;BME280;72082;52.650;8.116;2024-02-23T02:19:29;98462.16;;;4.75;100.00
29535;BME280;72082;52.650;8.116;2024-02-23T02:21:54;98446.03;;;4.79;100.00
29535;BME280;72082;52.650;8.116;2024-02-23T02:24:19;98471.31;;;4.83;100.00
29535;BME280;72082;52.650;8.116;2024-02-23T02:26:44;98455.25;;;4.84;100.00
29535;BME280;72082;52.650;8.116;2024-02-23T02:29:10;98460.25;;;4.87;100.00
29535;BME280;72082;52.650;8.116;2024-02-23T02:31:35;98466.13;;;4.89;100.00
29535;BME280;72082;52.650;8.116;2024-02-23T02:34:00;98481.31;;;4.92;100.00
29535;BME280;72082;52.650;8.116;2024-02-23T02:36:25;98470.28;;;4.93;100.00
29535;BME280;72082;52.650;8.116;2024-02-23T02:38:50;98478.69;;;4.95;100.00
29535;BME280;72082;52.650;8.116;2024-02-23T02:41:17;98483.75;;;4.97;100.00
29535;BME280;72082;52.650;8.116;2024-02-23T02:43:44;98474.47;;;4.96;100.00
29535;BME280;72082;52.650;8.116;2024-02-23T02:46:09;98487.16;;;4.96;100.00
29535;BME280;72082;52.650;8.116;2024-02-23T02:48:34;98489.69;;;4.97;100.00
29535;BME280;72082;52.650;8.116;2024-02-23T02:50:59;98481.22;;;4.97;100.00
29535;BME280;72082;52.650;8.116;2024-02-23T02:53:25;98495.59;;;4.96;100.00
29535;BME280;72082;52.650;8.116;2024-02-23T02:55:50;98496.41;;;4.98;100.00
29535;BME280;72082;52.650;8.116;2024-02-23T02:58:15;98495.56;;;4.99;100.00
29535;BME280;72082;52.650;8.116;2024-02-23T03:00:40;98495.53;;;5.01;100.00
29535;BME280;72082;52.650;8.116;2024-02-23T03:03:06;98506.50;;;5.03;100.00
29535;BME280;72082;52.650;8.116;2024-02-23T03:05:31;98502.25;;;5.04;100.00
29535;BME280;72082;52.650;8.116;2024-02-23T03:07:56;98523.38;;;5.06;100.00
29535;BME280;72082;52.650;8.116;2024-02-23T03:10:21;98540.25;;;5.07;100.00
29535;BME280;72082;52.650;8.116;2024-02-23T03:12:47;98546.13;;;5.09;100.00
29535;BME280;72082;52.650;8.116;2024-02-23T03:15:12;98541.91;;;5.09;100.00
29535;BME280;72082;52.650;8.116;2024-02-23T03:17:37;98539.41;;;5.08;100.00
29535;BME280;72082;52.650;8.116;2024-02-23T03:20:03;98549.72;;;4.97;100.00
29535;BME280;72082;52.650;8.116;2024-02-23T03:22:29;98554.22;;;4.80;100.00
29535;BME280;72082;52.650;8.116;2024-02-23T03:24:54;98558.66;;;4.67;100.00
29535;BME280;72082;52.650;8.116;2024-02-23T03:27:19;98552.91;;;4.56;100.00
29535;BME280;72082;52.650;8.116;2024-02-23T03:29:46;98552.22;;;4.45;100.00
29535;BME280;72082;52.650;8.116;2024-02-23T03:32:11;98569.19;;;4.40;100.00
29535;BME280;72082;52.650;8.116;2024-02-23T03:34:36;98582.75;;;4.38;100.00
29535;BME280;72082;52.650;8.116;2024-02-23T03:37:01;98584.41;;;4.38;100.00
29535;BME280;72082;52.650;8.116;2024-02-23T03:39:27;98591.16;;;4.38;100.00
29535;BME280;72082;52.650;8.116;2024-02-23T03:41:52;98595.50;;;4.31;100.00
29535;BME280;72082;52.650;8.116;2024-02-23T03:44:17;98599.78;;;4.26;100.00
29535;BME280;72082;52.650;8.116;2024-02-23T03:46:42;98600.69;;;4.21;100.00
29535;BME280;72082;52.650;8.116;2024-02-23T03:49:08;98612.56;;;4.17;100.00
29535;BME280;72082;52.650;8.116;2024-02-23T03:51:33;98616.84;;;4.14;100.00
29535;BME280;72082;52.650;8.116;2024-02-23T03:53:58;98616.03;;;4.12;100.00
29535;BME280;72082;52.650;8.116;2024-02-23T03:56:24;98610.97;;;4.10;100.00
29535;BME280;72082;52.650;8.116;2024-02-23T03:58:49;98632.06;;;4.09;100.00
29535;BME280;72082;52.650;8.116;2024-02-23T04:01:14;98616.91;;;4.08;100.00
29535;BME280;72082;52.650;8.116;2024-02-23T04:03:39;98652.38;;;4.08;100.00
29535;BME280;72082;52.650;8.116;2024-02-23T04:06:05;98645.69;;;4.04;100.00
29535;BME280;72082;52.650;8.116;2024-02-23T04:08:30;98652.44;;;4.02;100.00
29535;BME280;72082;52.650;8.116;2024-02-23T04:10:55;98655.03;;;3.99;100.00
29535;BME280;72082;52.650;8.116;2024-02-23T04:13:21;98645.75;;;3.95;100.00
29535;BME280;72082;52.650;8.116;2024-02-23T04:15:46;98650.00;;;3.91;100.00
29535;BME280;72082;52.650;8.116;2024-02-23T04:18:11;98646.66;;;3.89;100.00
29535;BME280;72082;52.650;8.116;2024-02-23T04:20:36;98647.47;;;3.93;100.00
29535;BME280;72082;52.650;8.116;2024-02-23T04:23:02;98653.38;;;3.93;100.00
29535;BME280;72082;52.650;8.116;2024-02-23T04:25:27;98639.00;;;3.94;100.00
29535;BME280;72082;52.650;8.116;2024-02-23T04:27:52;98634.81;;;3.93;100.00
29535;BME280;72082;52.650;8.116;2024-02-23T04:30:17;98632.25;;;3.96;100.00
29535;BME280;72082;52.650;8.116;2024-02-23T04:32:43;98631.38;;;3.98;100.00
29535;BME280;72082;52.650;8.116;2024-02-23T04:35:08;98641.50;;;3.98;100.00
29535;BME280;72082;52.650;8.116;2024-02-23T04:37:34;98633.03;;;4.01;100.00
29535;BME280;72082;52.650;8.116;2024-02-23T04:39:59;98629.63;;;4.02;100.00
29535;BME280;72082;52.650;8.116;2024-02-23T04:42:24;98645.63;;;4.07;100.00
29535;BME280;72082;52.650;8.116;2024-02-23T04:44:49;98646.41;;;4.13;100.00
29535;BME280;72082;52.650;8.116;2024-02-23T04:47:15;98653.03;;;4.23;100.00
29535;BME280;72082;52.650;8.116;2024-02-23T04:49:40;98631.72;;;4.38;100.00
29535;BME280;72082;52.650;8.116;2024-02-23T04:52:05;98648.50;;;4.50;100.00
29535;BME280;72082;52.650;8.116;2024-02-23T04:54:31;98642.44;;;4.61;100.00
29535;BME280;72082;52.650;8.116;2024-02-23T04:56:56;98658.31;;;4.72;100.00
29535;BME280;72082;52.650;8.116;2024-02-23T04:59:21;98661.56;;;4.83;100.00
29535;BME280;72082;52.650;8.116;2024-02-23T05:01:46;98649.56;;;4.94;100.00
29535;BME280;72082;52.650;8.116;2024-02-23T05:04:12;98668.06;;;5.03;100.00
29535;BME280;72082;52.650;8.116;2024-02-23T05:06:37;98664.53;;;5.13;100.00
29535;BME280;72082;52.650;8.116;2024-02-23T05:09:02;98670.34;;;5.21;100.00
29535;BME280;72082;52.650;8.116;2024-02-23T05:11:28;98671.94;;;5.26;100.00
29535;BME280;72082;52.650;8.116;2024-02-23T05:13:53;98678.66;;;5.29;100.00
29535;BME280;72082;52.650;8.116;2024-02-23T05:16:18;98665.09;;;5.31;100.00
29535;BME280;72082;52.650;8.116;2024-02-23T05:18:43;98664.28;;;5.28;100.00
29535;BME280;72082;52.650;8.116;2024-02-23T05:21:09;98670.22;;;5.27;100.00
29535;BME280;72082;52.650;8.116;2024-02-23T05:23:35;98684.63;;;5.25;100.00
29535;BME280;72082;52.650;8.116;2024-02-23T05:26:00;98696.47;;;5.26;100.00
29535;BME280;72082;52.650;8.116;2024-02-23T05:28:25;98677.84;;;5.27;100.00
29535;BME280;72082;52.650;8.116;2024-02-23T05:30:51;98679.56;;;5.25;100.00
29535;BME280;72082;52.650;8.116;2024-02-23T05:33:16;98690.59;;;5.24;100.00
29535;BME280;72082;52.650;8.116;2024-02-23T05:35:41;98694.84;;;5.22;100.00
29535;BME280;72082;52.650;8.116;2024-02-23T05:38:07;98697.38;;;5.23;100.00
29535;BME280;72082;52.650;8.116;2024-02-23T05:40:32;98709.25;;;5.21;100.00
29535;BME280;72082;52.650;8.116;2024-02-23T05:42:57;98716.88;;;5.21;100.00
29535;BME280;72082;52.650;8.116;2024-02-23T05:45:22;98692.28;;;5.22;100.00
29535;BME280;72082;52.650;8.116;2024-02-23T05:47:48;98706.69;;;5.23;100.00
29535;BME280;72082;52.650;8.116;2024-02-23T05:50:13;98722.72;;;5.25;100.00
29535;BME280;72082;52.650;8.116;2024-02-23T05:52:38;98715.97;;;5.22;100.00
29535;BME280;72082;52.650;8.116;2024-02-23T05:55:04;98716.03;;;5.21;100.00
29535;BME280;72082;52.650;8.116;2024-02-23T05:57:29;98722.78;;;5.20;100.00
29535;BME280;72082;52.650;8.116;2024-02-23T05:59:55;98735.53;;;5.19;100.00
29535;BME280;72082;52.650;8.116;2024-02-23T06:02:20;98742.25;;;5.21;100.00
29535;BME280;72082;52.650;8.116;2024-02-23T06:04:45;98767.56;;;5.24;100.00
29535;BME280;72082;52.650;8.116;2024-02-23T06:07:10;98765.03;;;5.26;100.00
29535;BME280;72082;52.650;8.116;2024-02-23T06:09:36;98760.75;;;5.28;100.00
29535;BME280;72082;52.650;8.116;2024-02-23T06:12:01;98750.59;;;5.28;100.00
29535;BME280;72082;52.650;8.116;2024-02-23T06:14:26;98751.41;;;5.30;100.00
29535;BME280;72082;52.650;8.116;2024-02-23T06:16:51;98756.50;;;5.30;100.00
29535;BME280;72082;52.650;8.116;2024-02-23T06:19:17;98763.25;;;5.31;100.00
29535;BME280;72082;52.650;8.116;2024-02-23T06:21:42;98771.69;;;5.33;100.00
29535;BME280;72082;52.650;8.116;2024-02-23T06:24:07;98773.38;;;5.34;100.00
29535;BME280;72082;52.650;8.116;2024-02-23T06:26:32;98760.66;;;5.37;100.00
29535;BME280;72082;52.650;8.116;2024-02-23T06:28:58;98774.16;;;5.39;100.00
29535;BME280;72082;52.650;8.116;2024-02-23T06:31:23;98781.69;;;5.43;100.00
29535;BME280;72082;52.650;8.116;2024-02-23T06:33:48;98768.06;;;5.49;100.00
29535;BME280;72082;52.650;8.116;2024-02-23T06:36:13;98770.56;;;5.50;100.00
29535;BME280;72082;52.650;8.116;2024-02-23T06:38:39;98762.09;;;5.51;100.00
29535;BME280;72082;52.650;8.116;2024-02-23T06:41:04;98766.34;;;5.52;100.00
29535;BME280;72082;52.650;8.116;2024-02-23T06:43:29;98771.47;;;5.49;100.00
29535;BME280;72082;52.650;8.116;2024-02-23T06:45:54;98768.97;;;5.45;100.00
29535;BME280;72082;52.650;8.116;2024-02-23T06:48:20;98775.00;;;5.38;100.00
29535;BME280;72082;52.650;8.116;2024-02-23T06:50:45;98786.03;;;5.35;100.00
29535;BME280;72082;52.650;8.116;2024-02-23T06:53:10;98775.88;;;5.35;100.00
29535;BME280;72082;52.650;8.116;2024-02-23T06:55:36;98781.81;;;5.36;100.00
29535;BME280;72082;52.650;8.116;2024-02-23T06:58:01;98779.22;;;5.39;100.00
29535;BME280;72082;52.650;8.116;2024-02-23T07:00:27;98786.81;;;5.40;100.00
29535;BME280;72082;52.650;8.116;2024-02-23T07:02:52;98806.22;;;5.46;100.00
29535;BME280;72082;52.650;8.116;2024-02-23T07:05:17;98797.63;;;5.53;100.00
29535;BME280;72082;52.650;8.116;2024-02-23T07:07:42;98799.25;;;5.58;100.00
29535;BME280;72082;52.650;8.116;2024-02-23T07:10:08;98796.66;;;5.63;100.00
29535;BME280;72082;52.650;8.116;2024-02-23T07:12:34;98801.66;;;5.66;100.00
29535;BME280;72082;52.650;8.116;2024-02-23T07:14:59;98795.78;;;5.66;100.00
29535;BME280;72082;52.650;8.116;2024-02-23T07:17:24;98795.78;;;5.64;100.00
29535;BME280;72082;52.650;8.116;2024-02-23T07:19:50;98800.84;;;5.64;100.00
29535;BME280;72082;52.650;8.116;2024-02-23T07:22:15;98790.69;;;5.64;100.00
29535;BME280;72082;52.650;8.116;2024-02-23T07:24:44;98795.78;;;5.66;100.00
29535;BME280;72082;52.650;8.116;2024-02-23T07:27:09;98799.94;;;5.70;100.00
29535;BME280;72082;52.650;8.116;2024-02-23T07:29:35;98798.19;;;5.73;100.00
29535;BME280;72082;52.650;8.116;2024-02-23T07:32:00;98800.66;;;5.76;100.00
29535;BME280;72082;52.650;8.116;2024-02-23T07:34:25;98798.09;;;5.79;100.00
29535;BME280;72082;52.650;8.116;2024-02-23T07:36:54;98804.00;;;5.81;100.00
29535;BME280;72082;52.650;8.116;2024-02-23T07:39:20;98802.28;;;5.83;100.00
29535;BME280;72082;52.650;8.116;2024-02-23T07:41:46;98801.44;;;5.83;100.00
29535;BME280;72082;52.650;8.116;2024-02-23T07:44:11;98812.44;;;5.85;100.00
29535;BME280;72082;52.650;8.116;2024-02-23T07:46:37;98799.66;;;5.89;100.00
29535;BME280;72082;52.650;8.116;2024-02-23T07:49:03;98794.50;;;5.94;100.00
29535;BME280;72082;52.650;8.116;2024-02-23T07:51:29;98804.59;;;5.98;100.00
29535;BME280;72082;52.650;8.116;2024-02-23T07:53:54;98818.94;;;6.02;100.00
29535;BME280;72082;52.650;8.116;2024-02-23T07:56:19;98800.28;;;6.03;100.00
29535;BME280;72082;52.650;8.116;2024-02-23T07:58:44;98813.75;;;6.08;100.00
29535;BME280;72082;52.650;8.116;2024-02-23T08:01:09;98823.03;;;6.11;100.00
29535;BME280;72082;52.650;8.116;2024-02-23T08:03:35;98819.59;;;6.15;100.00
29535;BME280;72082;52.650;8.116;2024-02-23T08:06:00;98825.44;;;6.20;100.00
29535;BME280;72082;52.650;8.116;2024-02-23T08:08:25;98826.16;;;6.27;100.00
29535;BME280;72082;52.650;8.116;2024-02-23T08:10:51;98822.63;;;6.34;100.00
29535;BME280;72082;52.650;8.116;2024-02-23T08:13:16;98820.03;;;6.38;100.00
29535;BME280;72082;52.650;8.116;2024-02-23T08:15:41;98816.56;;;6.44;100.00
29535;BME280;72082;52.650;8.116;2024-02-23T08:18:06;98811.38;;;6.47;100.00
29535;BME280;72082;52.650;8.116;2024-02-23T08:20:31;98811.34;;;6.50;100.00
29535;BME280;72082;52.650;8.116;2024-02-23T08:22:57;98824.81;;;6.55;100.00
29535;BME280;72082;52.650;8.116;2024-02-23T08:25:22;98817.97;;;6.58;100.00
29535;BME280;72082;52.650;8.116;2024-02-23T08:27:50;98816.22;;;6.62;100.00
29535;BME280;72082;52.650;8.116;2024-02-23T08:30:16;98827.16;;;6.65;100.00
29535;BME280;72082;52.650;8.116;2024-02-23T08:32:41;98824.56;;;6.70;100.00
29535;BME280;72082;52.650;8.116;2024-02-23T08:35:06;98833.84;;;6.72;100.00
29535;BME280;72082;52.650;8.116;2024-02-23T08:37:32;98833.75;;;6.77;100.00
29535;BME280;72082;52.650;8.116;2024-02-23T08:39:57;98835.41;;;6.79;100.00
29535;BME280;72082;52.650;8.116;2024-02-23T08:42:23;98835.34;;;6.82;100.00
29535;BME280;72082;52.650;8.116;2024-02-23T08:44:48;98830.19;;;6.86;100.00
29535;BME280;72082;52.650;8.116;2024-02-23T08:47:13;98834.38;;;6.88;100.00
29535;BME280;72082;52.650;8.116;2024-02-23T08:49:38;98825.81;;;6.92;100.00
29535;BME280;72082;52.650;8.116;2024-02-23T08:52:04;98820.59;;;6.98;100.00
29535;BME280;72082;52.650;8.116;2024-02-23T08:54:29;98827.25;;;7.05;100.00
29535;BME280;72082;52.650;8.116;2024-02-23T08:56:55;98816.09;;;7.11;100.00
29535;BME280;72082;52.650;8.116;2024-02-23T08:59:20;98832.97;;;7.15;100.00
29535;BME280;72082;52.650;8.116;2024-02-23T09:01:45;98825.28;;;7.18;100.00
29535;BME280;72082;52.650;8.116;2024-02-23T09:04:10;98827.81;;;7.19;100.00
29535;BME280;72082;52.650;8.116;2024-02-23T09:06:36;98826.06;;;7.21;100.00
29535;BME280;72082;52.650;8.116;2024-02-23T09:09:01;98829.47;;;7.22;100.00
29535;BME280;72082;52.650;8.116;2024-02-23T09:11:26;98819.28;;;7.20;100.00
29535;BME280;72082;52.650;8.116;2024-02-23T09:13:51;98829.53;;;7.19;100.00
29535;BME280;72082;52.650;8.116;2024-02-23T09:16:17;98827.84;;;7.18;100.00
29535;BME280;72082;52.650;8.116;2024-02-23T09:18:42;98832.88;;;7.21;100.00
29535;BME280;72082;52.650;8.116;2024-02-23T09:21:07;98854.03;;;7.24;100.00
29535;BME280;72082;52.650;8.116;2024-02-23T09:23:33;98848.91;;;7.26;100.00
29535;BME280;72082;52.650;8.116;2024-02-23T09:25:59;98860.78;;;7.27;100.00
29535;BME280;72082;52.650;8.116;2024-02-23T09:28:24;98846.31;;;7.27;100.00
29535;BME280;72082;52.650;8.116;2024-02-23T09:30:49;98851.38;;;7.29;100.00
29535;BME280;72082;52.650;8.116;2024-02-23T09:33:16;98851.31;;;7.32;100.00
29535;BME280;72082;52.650;8.116;2024-02-23T09:35:41;98842.75;;;7.36;100.00
29535;BME280;72082;52.650;8.116;2024-02-23T09:38:06;98852.03;;;7.38;100.00
29535;BME280;72082;52.650;8.116;2024-02-23T09:40:31;98845.06;;;7.46;100.00
29535;BME280;72082;52.650;8.116;2024-02-23T09:42:57;98844.03;;;7.55;100.00
29535;BME280;72082;52.650;8.116;2024-02-23T09:45:24;98846.53;;;7.57;100.00
29535;BME280;72082;52.650;8.116;2024-02-23T09:47:50;98846.47;;;7.60;100.00
29535;BME280;72082;52.650;8.116;2024-02-23T09:50:20;98851.50;;;7.63;100.00
29535;BME280;72082;52.650;8.116;2024-02-23T09:52:47;98846.41;;;7.63;100.00
29535;BME280;72082;52.650;8.116;2024-02-23T09:55:12;98852.38;;;7.62;100.00
29535;BME280;72082;52.650;8.116;2024-02-23T09:57:39;98859.09;;;7.66;100.00
29535;BME280;72082;52.650;8.116;2024-02-23T10:00:04;98868.34;;;7.70;100.00
29535;BME280;72082;52.650;8.116;2024-02-23T10:02:32;98886.91;;;7.75;100.00
29535;BME280;72082;52.650;8.116;2024-02-23T10:04:57;98859.72;;;7.75;100.00
29535;BME280;72082;52.650;8.116;2024-02-23T10:07:25;98880.09;;;7.77;100.00
29535;BME280;72082;52.650;8.116;2024-02-23T10:09:50;98870.75;;;7.76;100.00
29535;BME280;72082;52.650;8.116;2024-02-23T10:12:15;98865.72;;;7.74;100.00
29535;BME280;72082;52.650;8.116;2024-02-23T10:14:41;98862.31;;;7.74;100.00
29535;BME280;72082;52.650;8.116;2024-02-23T10:17:07;98870.81;;;7.74;100.00
29535;BME280;72082;52.650;8.116;2024-02-23T10:19:33;98863.84;;;7.81;100.00
29535;BME280;72082;52.650;8.116;2024-02-23T10:21:58;98872.13;;;7.90;100.00
29535;BME280;72082;52.650;8.116;2024-02-23T10:24:24;98872.78;;;8.00;100.00
29535;BME280;72082;52.650;8.116;2024-02-23T10:26:49;98872.59;;;8.06;100.00
29535;BME280;72082;52.650;8.116;2024-02-23T10:29:14;98880.06;;;8.15;100.00
29535;BME280;72082;52.650;8.116;2024-02-23T10:31:40;98878.25;;;8.20;100.00
29535;BME280;72082;52.650;8.116;2024-02-23T10:34:07;98885.81;;;8.23;100.00
29535;BME280;72082;52.650;8.116;2024-02-23T10:36:33;98888.38;;;8.23;100.00
29535;BME280;72082;52.650;8.116;2024-02-23T10:39:02;98873.13;;;8.20;100.00
29535;BME280;72082;52.650;8.116;2024-02-23T10:41:27;98890.13;;;8.21;100.00
29535;BME280;72082;52.650;8.116;2024-02-23T10:43:55;98869.66;;;8.23;100.00
29535;BME280;72082;52.650;8.116;2024-02-23T10:46:21;98869.63;;;8.24;100.00
29535;BME280;72082;52.650;8.116;2024-02-23T10:48:48;98875.63;;;8.23;100.00
29535;BME280;72082;52.650;8.116;2024-02-23T10:51:14;98858.63;;;8.22;100.00
29535;BME280;72082;52.650;8.116;2024-02-23T10:53:40;98870.44;;;8.26;100.00
29535;BME280;72082;52.650;8.116;2024-02-23T10:56:07;98870.31;;;8.32;100.00
29535;BME280;72082;52.650;8.116;2024-02-23T10:58:32;98885.44;;;8.40;100.00
29535;BME280;72082;52.650;8.116;2024-02-23T11:01:00;98860.75;;;8.42;100.00
29535;BME280;72082;52.650;8.116;2024-02-23T11:03:28;98875.28;;;8.38;100.00
29535;BME280;72082;52.650;8.116;2024-02-23T11:05:54;98871.94;;;8.36;100.00
29535;BME280;72082;52.650;8.116;2024-02-23T11:08:20;98866.91;;;8.33;100.00
29535;BME280;72082;52.650;8.116;2024-02-23T11:10:50;98877.22;;;8.29;100.00
29535;BME280;72082;52.650;8.116;2024-02-23T11:13:15;98890.00;;;8.27;100.00
29535;BME280;72082;52.650;8.116;2024-02-23T11:15:42;98870.31;;;8.32;100.00
29535;BME280;72082;52.650;8.116;2024-02-23T11:18:26;98890.53;;;8.40;100.00
29535;BME280;72082;52.650;8.116;2024-02-23T11:20:59;98887.19;;;8.39;100.00
29535;BME280;72082;52.650;8.116;2024-02-23T11:23:24;98892.28;;;8.39;100.00
29535;BME280;72082;52.650;8.116;2024-02-23T11:26:11;98883.78;;;8.37;100.00
29535;BME280;72082;52.650;8.116;2024-02-23T11:28:50;98865.91;;;8.39;100.00
29535;BME280;72082;52.650;8.116;2024-02-23T11:31:22;98858.22;;;8.40;100.00
29535;BME280;72082;52.650;8.116;2024-02-23T11:33:49;98877.91;;;8.35;100.00
29535;BME280;72082;52.650;8.116;2024-02-23T11:36:28;98870.44;;;8.28;100.00
29535;BME280;72082;52.650;8.116;2024-02-23T11:38:54;98858.63;;;8.22;100.00
29535;BME280;72082;52.650;8.116;2024-02-23T11:41:22;98875.75;;;8.17;100.00
29535;BME280;72082;52.650;8.116;2024-02-23T11:43:47;98891.13;;;8.14;100.00
29535;BME280;72082;52.650;8.116;2024-02-23T11:46:15;98885.22;;;8.12;100.00
29535;BME280;72082;52.650;8.116;2024-02-23T11:48:40;98892.88;;;8.12;100.00
29535;BME280;72082;52.650;8.116;2024-02-23T11:51:06;98893.69;;;8.14;100.00
29535;BME280;72082;52.650;8.116;2024-02-23T11:53:32;98901.31;;;8.14;100.00
29535;BME280;72082;52.650;8.116;2024-02-23T11:55:57;98898.78;;;8.14;100.00
29535;BME280;72082;52.650;8.116;2024-02-23T11:58:22;98899.66;;;8.13;100.00
29535;BME280;72082;52.650;8.116;2024-02-23T12:00:48;98884.38;;;8.13;100.00
29535;BME280;72082;52.650;8.116;2024-02-23T12:03:13;98894.56;;;8.13;100.00
29535;BME280;72082;52.650;8.116;2024-02-23T12:05:38;98889.41;;;8.15;100.00
29535;BME280;72082;52.650;8.116;2024-02-23T12:08:04;98903.75;;;8.19;100.00
29535;BME280;72082;52.650;8.116;2024-02-23T12:10:29;98880.72;;;8.23;100.00
29535;BME280;72082;52.650;8.116;2024-02-23T12:12:55;98878.81;;;8.33;100.00
29535;BME280;72082;52.650;8.116;2024-02-23T12:15:20;98883.59;;;8.46;100.00
29535;BME280;72082;52.650;8.116;2024-02-23T12:17:47;98882.41;;;8.59;100.00
29535;BME280;72082;52.650;8.116;2024-02-23T12:20:12;98873.22;;;8.85;100.00
29535;BME280;72082;52.650;8.116;2024-02-23T12:22:38;98882.00;;;9.07;100.00
29535;BME280;72082;52.650;8.116;2024-02-23T12:25:03;98865.16;;;9.00;100.00
29535;BME280;72082;52.650;8.116;2024-02-23T12:27:28;98871.47;;;8.87;100.00
29535;BME280;72082;52.650;8.116;2024-02-23T12:29:54;98875.13;;;8.78;100.00
29535;BME280;72082;52.650;8.116;2024-02-23T12:32:23;98880.25;;;8.77;100.00
29535;BME280;72082;52.650;8.116;2024-02-23T12:34:48;98870.00;;;8.78;100.00
29535;BME280;72082;52.650;8.116;2024-02-23T12:37:17;98883.56;;;8.80;100.00
29535;BME280;72082;52.650;8.116;2024-02-23T12:39:46;98871.66;;;8.81;100.00
29535;BME280;72082;52.650;8.116;2024-02-23T12:42:11;98874.94;;;8.84;100.00
29535;BME280;72082;52.650;8.116;2024-02-23T12:44:36;98876.63;;;8.85;100.00
29535;BME280;72082;52.650;8.116;2024-02-23T12:47:01;98856.19;;;8.85;100.00
29535;BME280;72082;52.650;8.116;2024-02-23T12:49:27;98881.72;;;8.85;100.00
29535;BME280;72082;52.650;8.116;2024-02-23T12:51:52;98881.03;;;8.79;100.00